Apple Valley, North Dakota
Current Conditions -  °F | °C
As of 8:52 PM on Saturday 20 Dec 2014 (Local Time) from KBIS Reporting Station
Clear Clear  
Wind Chill: 21°   Ceiling: Unl
Heat Index: 21°   Visibility: 7mi
Dew Point: 20°   Wind: 3mph
Humidity: 96%   Direction: 120°ESE
Pressure: 29.81"   Gusts: NA
Location:  46.8954°N, 100.519°W
Report Text: KBIS 210252Z 12003KT 7SM CLR M06/M07 A2981 RMK AO2 SLP122 I1000 I3000 T10611067 56008
Loading
Personal Weather Stations






























Interactive Weather Map New forecast layout! Learn more

10-Day Weather Forecast

Advertisements
Track Severe Weather on mobile